sensor_id;sensor_type;location;lat;lon;timestamp;P1;durP1;ratioP1;P2;durP2;ratioP2
32186;SDS011;18686;53.084;8.872;2023-12-07T00:00:42;263.02;;;52.00;;
32186;SDS011;18686;53.084;8.872;2023-12-07T00:03:11;188.55;;;45.58;;
32186;SDS011;18686;53.084;8.872;2023-12-07T00:05:39;218.32;;;47.17;;
32186;SDS011;18686;53.084;8.872;2023-12-07T00:08:09;235.02;;;48.38;;
32186;SDS011;18686;53.084;8.872;2023-12-07T00:10:37;226.95;;;51.03;;
32186;SDS011;18686;53.084;8.872;2023-12-07T00:13:07;196.07;;;46.40;;
32186;SDS011;18686;53.084;8.872;2023-12-07T00:15:35;177.05;;;45.20;;
32186;SDS011;18686;53.084;8.872;2023-12-07T00:18:05;167.73;;;44.97;;
32186;SDS011;18686;53.084;8.872;2023-12-07T00:20:33;206.80;;;48.25;;
32186;SDS011;18686;53.084;8.872;2023-12-07T00:23:01;206.90;;;48.15;;
32186;SDS011;18686;53.084;8.872;2023-12-07T00:25:30;262.52;;;51.25;;
32186;SDS011;18686;53.084;8.872;2023-12-07T00:27:58;204.25;;;49.30;;
32186;SDS011;18686;53.084;8.872;2023-12-07T00:30:27;306.98;;;53.63;;
32186;SDS011;18686;53.084;8.872;2023-12-07T00:32:55;228.10;;;49.80;;
32186;SDS011;18686;53.084;8.872;2023-12-07T00:35:25;238.38;;;51.28;;
32186;SDS011;18686;53.084;8.872;2023-12-07T00:37:55;266.23;;;53.90;;
32186;SDS011;18686;53.084;8.872;2023-12-07T00:40:24;219.48;;;48.42;;
32186;SDS011;18686;53.084;8.872;2023-12-07T00:42:52;198.38;;;46.08;;
32186;SDS011;18686;53.084;8.872;2023-12-07T00:45:21;212.98;;;46.72;;
32186;SDS011;18686;53.084;8.872;2023-12-07T00:47:49;237.90;;;50.17;;
32186;SDS011;18686;53.084;8.872;2023-12-07T00:50:17;187.45;;;44.42;;
32186;SDS011;18686;53.084;8.872;2023-12-07T00:52:47;202.50;;;45.17;;
32186;SDS011;18686;53.084;8.872;2023-12-07T00:55:15;229.88;;;48.97;;
32186;SDS011;18686;53.084;8.872;2023-12-07T00:57:44;201.15;;;45.42;;
32186;SDS011;18686;53.084;8.872;2023-12-07T01:00:13;252.23;;;50.00;;
32186;SDS011;18686;53.084;8.872;2023-12-07T01:02:43;196.13;;;46.03;;
32186;SDS011;18686;53.084;8.872;2023-12-07T01:05:11;223.27;;;47.97;;
32186;SDS011;18686;53.084;8.872;2023-12-07T01:07:40;224.82;;;48.08;;
32186;SDS011;18686;53.084;8.872;2023-12-07T01:10:10;217.85;;;49.10;;
32186;SDS011;18686;53.084;8.872;2023-12-07T01:12:38;217.13;;;47.05;;
32186;SDS011;18686;53.084;8.872;2023-12-07T01:15:07;241.57;;;49.80;;
32186;SDS011;18686;53.084;8.872;2023-12-07T01:17:36;253.25;;;50.65;;
32186;SDS011;18686;53.084;8.872;2023-12-07T01:20:05;185.77;;;46.80;;
32186;SDS011;18686;53.084;8.872;2023-12-07T01:22:39;184.48;;;44.92;;
32186;SDS011;18686;53.084;8.872;2023-12-07T01:25:08;264.58;;;51.90;;
32186;SDS011;18686;53.084;8.872;2023-12-07T01:27:38;262.17;;;50.30;;
32186;SDS011;18686;53.084;8.872;2023-12-07T01:30:07;163.40;;;44.08;;
32186;SDS011;18686;53.084;8.872;2023-12-07T01:32:36;203.07;;;44.72;;
32186;SDS011;18686;53.084;8.872;2023-12-07T01:35:05;276.67;;;51.00;;
32186;SDS011;18686;53.084;8.872;2023-12-07T01:37:34;221.60;;;49.53;;
32186;SDS011;18686;53.084;8.872;2023-12-07T01:40:03;223.85;;;49.25;;
32186;SDS011;18686;53.084;8.872;2023-12-07T01:42:38;259.10;;;49.42;;
32186;SDS011;18686;53.084;8.872;2023-12-07T01:45:06;270.88;;;52.35;;
32186;SDS011;18686;53.084;8.872;2023-12-07T01:47:35;261.83;;;51.33;;
32186;SDS011;18686;53.084;8.872;2023-12-07T01:50:05;171.18;;;46.85;;
32186;SDS011;18686;53.084;8.872;2023-12-07T01:52:35;206.10;;;47.97;;
32186;SDS011;18686;53.084;8.872;2023-12-07T01:55:10;205.43;;;46.80;;
32186;SDS011;18686;53.084;8.872;2023-12-07T01:57:41;254.38;;;50.50;;
32186;SDS011;18686;53.084;8.872;2023-12-07T02:00:11;149.50;;;41.38;;
32186;SDS011;18686;53.084;8.872;2023-12-07T02:02:40;284.25;;;52.25;;
32186;SDS011;18686;53.084;8.872;2023-12-07T02:05:09;284.17;;;52.33;;
32186;SDS011;18686;53.084;8.872;2023-12-07T02:07:37;260.98;;;50.60;;
32186;SDS011;18686;53.084;8.872;2023-12-07T02:10:08;205.32;;;46.40;;
32186;SDS011;18686;53.084;8.872;2023-12-07T02:12:37;187.18;;;45.00;;
32186;SDS011;18686;53.084;8.872;2023-12-07T02:15:07;235.27;;;49.13;;
32186;SDS011;18686;53.084;8.872;2023-12-07T02:17:38;209.27;;;45.72;;
32186;SDS011;18686;53.084;8.872;2023-12-07T02:20:16;209.07;;;47.67;;
32186;SDS011;18686;53.084;8.872;2023-12-07T02:22:53;205.63;;;45.17;;
32186;SDS011;18686;53.084;8.872;2023-12-07T02:25:24;291.92;;;50.60;;
32186;SDS011;18686;53.084;8.872;2023-12-07T02:28:00;212.73;;;46.38;;
32186;SDS011;18686;53.084;8.872;2023-12-07T02:30:29;230.23;;;47.03;;
32186;SDS011;18686;53.084;8.872;2023-12-07T02:32:57;219.80;;;47.47;;
32186;SDS011;18686;53.084;8.872;2023-12-07T02:35:26;150.68;;;41.15;;
32186;SDS011;18686;53.084;8.872;2023-12-07T02:37:55;212.00;;;46.33;;
32186;SDS011;18686;53.084;8.872;2023-12-07T02:40:25;221.00;;;46.90;;
32186;SDS011;18686;53.084;8.872;2023-12-07T02:42:55;283.83;;;52.20;;
32186;SDS011;18686;53.084;8.872;2023-12-07T02:45:25;227.32;;;47.50;;
32186;SDS011;18686;53.084;8.872;2023-12-07T02:47:54;302.63;;;52.63;;
32186;SDS011;18686;53.084;8.872;2023-12-07T02:50:22;190.25;;;42.30;;
32186;SDS011;18686;53.084;8.872;2023-12-07T02:52:50;198.68;;;44.55;;
32186;SDS011;18686;53.084;8.872;2023-12-07T02:55:19;222.75;;;46.90;;
32186;SDS011;18686;53.084;8.872;2023-12-07T02:57:47;222.55;;;46.25;;
32186;SDS011;18686;53.084;8.872;2023-12-07T03:00:16;256.58;;;50.92;;
32186;SDS011;18686;53.084;8.872;2023-12-07T03:02:46;230.43;;;48.83;;
32186;SDS011;18686;53.084;8.872;2023-12-07T03:05:17;222.10;;;47.65;;
32186;SDS011;18686;53.084;8.872;2023-12-07T03:07:46;251.13;;;49.22;;
32186;SDS011;18686;53.084;8.872;2023-12-07T03:10:14;210.40;;;45.75;;
32186;SDS011;18686;53.084;8.872;2023-12-07T03:12:43;195.40;;;45.88;;
32186;SDS011;18686;53.084;8.872;2023-12-07T03:15:11;256.48;;;51.03;;
32186;SDS011;18686;53.084;8.872;2023-12-07T03:17:41;236.02;;;48.70;;
32186;SDS011;18686;53.084;8.872;2023-12-07T03:20:12;235.27;;;49.53;;
32186;SDS011;18686;53.084;8.872;2023-12-07T03:22:41;211.25;;;45.88;;
32186;SDS011;18686;53.084;8.872;2023-12-07T03:25:10;144.82;;;40.67;;
32186;SDS011;18686;53.084;8.872;2023-12-07T03:27:39;254.15;;;46.85;;
32186;SDS011;18686;53.084;8.872;2023-12-07T03:30:07;288.25;;;50.75;;
32186;SDS011;18686;53.084;8.872;2023-12-07T03:32:36;248.80;;;48.92;;
32186;SDS011;18686;53.084;8.872;2023-12-07T03:35:05;167.68;;;42.35;;
32186;SDS011;18686;53.084;8.872;2023-12-07T03:37:35;194.48;;;43.55;;
32186;SDS011;18686;53.084;8.872;2023-12-07T03:40:04;185.38;;;42.42;;
32186;SDS011;18686;53.084;8.872;2023-12-07T03:42:33;253.88;;;48.85;;
32186;SDS011;18686;53.084;8.872;2023-12-07T03:45:21;191.73;;;42.53;;
32186;SDS011;18686;53.084;8.872;2023-12-07T03:47:50;159.15;;;41.67;;
32186;SDS011;18686;53.084;8.872;2023-12-07T03:50:18;213.35;;;46.50;;
32186;SDS011;18686;53.084;8.872;2023-12-07T03:52:48;237.52;;;46.47;;
32186;SDS011;18686;53.084;8.872;2023-12-07T03:55:16;189.15;;;46.72;;
32186;SDS011;18686;53.084;8.872;2023-12-07T03:57:44;301.60;;;54.38;;
32186;SDS011;18686;53.084;8.872;2023-12-07T04:00:13;186.43;;;42.72;;
32186;SDS011;18686;53.084;8.872;2023-12-07T04:02:42;210.23;;;45.30;;
32186;SDS011;18686;53.084;8.872;2023-12-07T04:05:10;196.70;;;44.25;;
32186;SDS011;18686;53.084;8.872;2023-12-07T04:07:39;253.77;;;46.95;;
32186;SDS011;18686;53.084;8.872;2023-12-07T04:10:10;191.13;;;42.47;;
32186;SDS011;18686;53.084;8.872;2023-12-07T04:12:39;226.70;;;46.10;;
32186;SDS011;18686;53.084;8.872;2023-12-07T04:15:07;241.35;;;48.65;;
32186;SDS011;18686;53.084;8.872;2023-12-07T04:17:36;185.13;;;42.30;;
32186;SDS011;18686;53.084;8.872;2023-12-07T04:20:04;209.98;;;44.05;;
32186;SDS011;18686;53.084;8.872;2023-12-07T04:22:34;211.02;;;43.60;;
32186;SDS011;18686;53.084;8.872;2023-12-07T04:25:02;243.80;;;45.40;;
32186;SDS011;18686;53.084;8.872;2023-12-07T04:27:33;275.85;;;49.15;;
32186;SDS011;18686;53.084;8.872;2023-12-07T04:30:02;185.30;;;40.65;;
32186;SDS011;18686;53.084;8.872;2023-12-07T04:32:30;174.85;;;39.83;;
32186;SDS011;18686;53.084;8.872;2023-12-07T04:34:58;202.40;;;43.17;;
32186;SDS011;18686;53.084;8.872;2023-12-07T04:37:28;254.95;;;44.78;;
32186;SDS011;18686;53.084;8.872;2023-12-07T04:39:56;250.80;;;42.95;;
32186;SDS011;18686;53.084;8.872;2023-12-07T04:42:25;229.88;;;43.67;;
32186;SDS011;18686;53.084;8.872;2023-12-07T04:44:55;232.57;;;45.47;;
32186;SDS011;18686;53.084;8.872;2023-12-07T04:47:23;169.02;;;40.63;;
32186;SDS011;18686;53.084;8.872;2023-12-07T04:49:52;194.60;;;41.80;;
32186;SDS011;18686;53.084;8.872;2023-12-07T04:52:20;213.25;;;43.40;;
32186;SDS011;18686;53.084;8.872;2023-12-07T04:54:50;201.57;;;43.90;;
32186;SDS011;18686;53.084;8.872;2023-12-07T04:57:19;262.05;;;46.28;;
32186;SDS011;18686;53.084;8.872;2023-12-07T04:59:47;206.73;;;43.95;;
32186;SDS011;18686;53.084;8.872;2023-12-07T05:02:17;203.95;;;45.58;;
32186;SDS011;18686;53.084;8.872;2023-12-07T05:04:46;203.98;;;45.72;;
32186;SDS011;18686;53.084;8.872;2023-12-07T05:07:15;203.43;;;43.97;;
32186;SDS011;18686;53.084;8.872;2023-12-07T05:09:43;195.25;;;41.70;;
32186;SDS011;18686;53.084;8.872;2023-12-07T05:12:12;197.32;;;42.58;;
32186;SDS011;18686;53.084;8.872;2023-12-07T05:14:41;207.77;;;44.28;;
32186;SDS011;18686;53.084;8.872;2023-12-07T05:17:09;186.13;;;43.70;;
32186;SDS011;18686;53.084;8.872;2023-12-07T05:19:39;177.73;;;42.70;;
32186;SDS011;18686;53.084;8.872;2023-12-07T05:22:08;196.00;;;44.88;;
32186;SDS011;18686;53.084;8.872;2023-12-07T05:24:36;323.00;;;53.38;;
32186;SDS011;18686;53.084;8.872;2023-12-07T05:27:05;157.43;;;41.28;;
32186;SDS011;18686;53.084;8.872;2023-12-07T05:29:33;143.70;;;37.80;;
32186;SDS011;18686;53.084;8.872;2023-12-07T05:32:05;203.15;;;46.53;;
32186;SDS011;18686;53.084;8.872;2023-12-07T05:34:36;220.55;;;45.42;;
32186;SDS011;18686;53.084;8.872;2023-12-07T05:37:05;186.48;;;43.22;;
32186;SDS011;18686;53.084;8.872;2023-12-07T05:39:34;273.70;;;48.03;;
32186;SDS011;18686;53.084;8.872;2023-12-07T05:42:03;191.27;;;41.33;;
32186;SDS011;18686;53.084;8.872;2023-12-07T05:44:31;203.40;;;43.10;;
32186;SDS011;18686;53.084;8.872;2023-12-07T05:47:00;254.25;;;45.60;;
32186;SDS011;18686;53.084;8.872;2023-12-07T05:49:28;203.00;;;42.47;;
32186;SDS011;18686;53.084;8.872;2023-12-07T05:51:57;291.05;;;47.40;;
32186;SDS011;18686;53.084;8.872;2023-12-07T05:54:26;178.80;;;39.92;;
32186;SDS011;18686;53.084;8.872;2023-12-07T05:56:55;250.55;;;45.30;;
32186;SDS011;18686;53.084;8.872;2023-12-07T05:59:23;225.98;;;44.92;;
32186;SDS011;18686;53.084;8.872;2023-12-07T06:01:51;210.00;;;42.70;;
32186;SDS011;18686;53.084;8.872;2023-12-07T06:04:20;262.30;;;46.50;;
32186;SDS011;18686;53.084;8.872;2023-12-07T06:06:49;188.23;;;40.75;;
32186;SDS011;18686;53.084;8.872;2023-12-07T06:09:18;264.55;;;48.17;;
32186;SDS011;18686;53.084;8.872;2023-12-07T06:11:47;180.57;;;43.38;;
32186;SDS011;18686;53.084;8.872;2023-12-07T06:14:15;222.32;;;43.83;;
32186;SDS011;18686;53.084;8.872;2023-12-07T06:16:44;282.77;;;47.38;;
32186;SDS011;18686;53.084;8.872;2023-12-07T06:19:12;262.40;;;47.47;;
32186;SDS011;18686;53.084;8.872;2023-12-07T06:21:41;207.40;;;44.20;;
32186;SDS011;18686;53.084;8.872;2023-12-07T06:24:10;269.55;;;47.25;;
32186;SDS011;18686;53.084;8.872;2023-12-07T06:26:40;217.55;;;43.13;;
32186;SDS011;18686;53.084;8.872;2023-12-07T06:29:10;235.20;;;44.67;;
32186;SDS011;18686;53.084;8.872;2023-12-07T06:31:42;259.05;;;48.63;;
32186;SDS011;18686;53.084;8.872;2023-12-07T06:34:11;215.10;;;44.60;;
32186;SDS011;18686;53.084;8.872;2023-12-07T06:36:39;261.38;;;49.80;;
32186;SDS011;18686;53.084;8.872;2023-12-07T06:39:08;251.13;;;46.78;;
32186;SDS011;18686;53.084;8.872;2023-12-07T06:41:36;232.15;;;46.28;;
32186;SDS011;18686;53.084;8.872;2023-12-07T06:44:05;291.58;;;51.75;;
32186;SDS011;18686;53.084;8.872;2023-12-07T06:46:36;164.23;;;41.78;;
32186;SDS011;18686;53.084;8.872;2023-12-07T06:49:04;295.25;;;49.03;;
32186;SDS011;18686;53.084;8.872;2023-12-07T06:51:33;242.50;;;46.13;;
32186;SDS011;18686;53.084;8.872;2023-12-07T06:54:01;285.02;;;47.50;;
32186;SDS011;18686;53.084;8.872;2023-12-07T06:56:29;251.35;;;46.60;;
32186;SDS011;18686;53.084;8.872;2023-12-07T06:58:58;170.65;;;42.08;;
32186;SDS011;18686;53.084;8.872;2023-12-07T07:01:26;217.85;;;41.78;;
32186;SDS011;18686;53.084;8.872;2023-12-07T07:03:58;211.48;;;42.15;;
32186;SDS011;18686;53.084;8.872;2023-12-07T07:06:26;243.23;;;45.22;;
32186;SDS011;18686;53.084;8.872;2023-12-07T07:08:55;262.80;;;46.28;;
32186;SDS011;18686;53.084;8.872;2023-12-07T07:11:26;222.00;;;46.33;;
32186;SDS011;18686;53.084;8.872;2023-12-07T07:13:55;242.98;;;46.35;;
32186;SDS011;18686;53.084;8.872;2023-12-07T07:16:23;210.25;;;42.97;;
32186;SDS011;18686;53.084;8.872;2023-12-07T07:18:52;195.50;;;40.88;;
32186;SDS011;18686;53.084;8.872;2023-12-07T07:21:21;229.85;;;42.72;;
32186;SDS011;18686;53.084;8.872;2023-12-07T07:23:51;231.98;;;43.83;;
32186;SDS011;18686;53.084;8.872;2023-12-07T07:26:20;251.48;;;46.75;;
32186;SDS011;18686;53.084;8.872;2023-12-07T07:28:48;266.70;;;47.88;;
32186;SDS011;18686;53.084;8.872;2023-12-07T07:31:16;230.30;;;44.55;;
32186;SDS011;18686;53.084;8.872;2023-12-07T07:33:45;236.60;;;46.25;;
32186;SDS011;18686;53.084;8.872;2023-12-07T07:36:27;230.15;;;48.85;;
32186;SDS011;18686;53.084;8.872;2023-12-07T07:38:55;226.55;;;44.42;;
32186;SDS011;18686;53.084;8.872;2023-12-07T07:41:24;212.77;;;46.30;;
32186;SDS011;18686;53.084;8.872;2023-12-07T07:43:53;215.75;;;43.25;;
32186;SDS011;18686;53.084;8.872;2023-12-07T07:46:22;232.25;;;45.38;;
32186;SDS011;18686;53.084;8.872;2023-12-07T07:48:50;194.23;;;42.78;;
32186;SDS011;18686;53.084;8.872;2023-12-07T07:51:18;265.15;;;47.53;;
32186;SDS011;18686;53.084;8.872;2023-12-07T07:53:48;198.75;;;44.60;;
32186;SDS011;18686;53.084;8.872;2023-12-07T07:56:16;195.90;;;41.65;;
32186;SDS011;18686;53.084;8.872;2023-12-07T07:58:45;224.93;;;46.15;;
32186;SDS011;18686;53.084;8.872;2023-12-07T08:01:14;228.55;;;46.03;;
32186;SDS011;18686;53.084;8.872;2023-12-07T08:03:43;266.52;;;49.97;;
32186;SDS011;18686;53.084;8.872;2023-12-07T08:06:11;237.77;;;47.00;;
32186;SDS011;18686;53.084;8.872;2023-12-07T08:08:40;208.40;;;42.45;;
32186;SDS011;18686;53.084;8.872;2023-12-07T08:11:09;205.60;;;45.45;;
32186;SDS011;18686;53.084;8.872;2023-12-07T08:13:38;172.50;;;43.63;;
32186;SDS011;18686;53.084;8.872;2023-12-07T08:16:07;229.60;;;45.83;;
32186;SDS011;18686;53.084;8.872;2023-12-07T08:18:36;221.00;;;44.55;;
32186;SDS011;18686;53.084;8.872;2023-12-07T08:21:06;216.20;;;45.85;;
32186;SDS011;18686;53.084;8.872;2023-12-07T08:23:35;208.40;;;47.20;;
32186;SDS011;18686;53.084;8.872;2023-12-07T08:26:03;239.02;;;46.83;;
32186;SDS011;18686;53.084;8.872;2023-12-07T08:28:35;202.68;;;43.95;;
32186;SDS011;18686;53.084;8.872;2023-12-07T08:31:03;167.57;;;42.88;;
32186;SDS011;18686;53.084;8.872;2023-12-07T08:33:33;234.20;;;47.20;;
32186;SDS011;18686;53.084;8.872;2023-12-07T08:36:02;259.05;;;50.55;;
32186;SDS011;18686;53.084;8.872;2023-12-07T08:38:31;181.18;;;41.63;;
32186;SDS011;18686;53.084;8.872;2023-12-07T08:40:59;230.98;;;46.10;;
32186;SDS011;18686;53.084;8.872;2023-12-07T08:43:29;217.75;;;45.30;;
32186;SDS011;18686;53.084;8.872;2023-12-07T08:45:59;185.85;;;44.10;;
32186;SDS011;18686;53.084;8.872;2023-12-07T08:48:27;190.45;;;43.78;;
32186;SDS011;18686;53.084;8.872;2023-12-07T08:50:56;187.68;;;43.55;;
32186;SDS011;18686;53.084;8.872;2023-12-07T08:53:24;228.48;;;47.22;;
32186;SDS011;18686;53.084;8.872;2023-12-07T08:55:53;164.55;;;43.53;;
32186;SDS011;18686;53.084;8.872;2023-12-07T08:58:21;193.93;;;44.65;;
32186;SDS011;18686;53.084;8.872;2023-12-07T09:00:50;165.35;;;41.75;;
32186;SDS011;18686;53.084;8.872;2023-12-07T09:03:20;172.25;;;43.42;;
32186;SDS011;18686;53.084;8.872;2023-12-07T09:05:52;174.77;;;43.37;;
32186;SDS011;18686;53.084;8.872;2023-12-07T09:08:20;174.60;;;41.47;;
32186;SDS011;18686;53.084;8.872;2023-12-07T09:10:49;219.32;;;44.75;;
32186;SDS011;18686;53.084;8.872;2023-12-07T09:13:17;236.38;;;45.33;;
32186;SDS011;18686;53.084;8.872;2023-12-07T09:15:46;185.20;;;44.13;;
32186;SDS011;18686;53.084;8.872;2023-12-07T09:18:14;256.60;;;47.05;;
32186;SDS011;18686;53.084;8.872;2023-12-07T09:20:44;198.65;;;41.88;;
32186;SDS011;18686;53.084;8.872;2023-12-07T09:23:13;154.73;;;41.03;;
32186;SDS011;18686;53.084;8.872;2023-12-07T09:25:42;224.73;;;47.40;;
32186;SDS011;18686;53.084;8.872;2023-12-07T09:28:11;165.70;;;40.88;;
32186;SDS011;18686;53.084;8.872;2023-12-07T09:30:39;154.85;;;39.40;;
32186;SDS011;18686;53.084;8.872;2023-12-07T09:33:08;175.43;;;43.08;;
32186;SDS011;18686;53.084;8.872;2023-12-07T09:35:38;165.43;;;40.30;;
32186;SDS011;18686;53.084;8.872;2023-12-07T09:38:08;250.63;;;45.42;;
32186;SDS011;18686;53.084;8.872;2023-12-07T09:40:36;168.52;;;40.65;;
32186;SDS011;18686;53.084;8.872;2023-12-07T09:43:05;158.40;;;40.05;;
32186;SDS011;18686;53.084;8.872;2023-12-07T09:45:34;172.50;;;40.42;;
32186;SDS011;18686;53.084;8.872;2023-12-07T09:48:02;197.35;;;43.35;;
32186;SDS011;18686;53.084;8.872;2023-12-07T09:50:32;165.98;;;41.45;;
32186;SDS011;18686;53.084;8.872;2023-12-07T09:53:00;133.88;;;36.92;;
32186;SDS011;18686;53.084;8.872;2023-12-07T09:55:35;183.85;;;41.42;;
32186;SDS011;18686;53.084;8.872;2023-12-07T09:58:05;178.10;;;41.80;;
32186;SDS011;18686;53.084;8.872;2023-12-07T10:00:35;171.10;;;41.15;;
32186;SDS011;18686;53.084;8.872;2023-12-07T10:03:05;152.07;;;38.47;;
32186;SDS011;18686;53.084;8.872;2023-12-07T10:05:51;183.82;;;40.67;;
32186;SDS011;18686;53.084;8.872;2023-12-07T10:08:27;132.32;;;36.13;;
32186;SDS011;18686;53.084;8.872;2023-12-07T10:11:04;157.10;;;38.78;;
32186;SDS011;18686;53.084;8.872;2023-12-07T10:13:34;148.32;;;37.75;;
32186;SDS011;18686;53.084;8.872;2023-12-07T10:16:05;127.75;;;36.05;;
32186;SDS011;18686;53.084;8.872;2023-12-07T10:18:38;152.57;;;37.28;;
32186;SDS011;18686;53.084;8.872;2023-12-07T10:21:10;171.13;;;40.47;;
32186;SDS011;18686;53.084;8.872;2023-12-07T10:23:41;130.10;;;35.75;;
32186;SDS011;18686;53.084;8.872;2023-12-07T10:26:15;99.82;;;34.22;;
32186;SDS011;18686;53.084;8.872;2023-12-07T10:28:48;160.98;;;37.92;;
32186;SDS011;18686;53.084;8.872;2023-12-07T10:31:20;103.18;;;33.92;;
32186;SDS011;18686;53.084;8.872;2023-12-07T10:33:50;146.70;;;36.42;;
32186;SDS011;18686;53.084;8.872;2023-12-07T10:36:19;154.82;;;39.03;;
32186;SDS011;18686;53.084;8.872;2023-12-07T10:38:47;125.80;;;35.55;;
32186;SDS011;18686;53.084;8.872;2023-12-07T10:41:19;133.05;;;35.88;;
32186;SDS011;18686;53.084;8.872;2023-12-07T10:43:51;175.90;;;38.63;;
32186;SDS011;18686;53.084;8.872;2023-12-07T10:46:21;113.88;;;32.38;;
32186;SDS011;18686;53.084;8.872;2023-12-07T10:48:51;102.32;;;32.05;;
32186;SDS011;18686;53.084;8.872;2023-12-07T10:51:23;108.20;;;34.53;;
32186;SDS011;18686;53.084;8.872;2023-12-07T10:53:59;143.73;;;37.13;;
32186;SDS011;18686;53.084;8.872;2023-12-07T10:56:38;85.63;;;33.37;;
32186;SDS011;18686;53.084;8.872;2023-12-07T10:59:08;120.88;;;35.90;;
32186;SDS011;18686;53.084;8.872;2023-12-07T11:01:52;110.57;;;34.28;;
32186;SDS011;18686;53.084;8.872;2023-12-07T11:04:22;95.85;;;33.20;;
32186;SDS011;18686;53.084;8.872;2023-12-07T11:06:52;130.90;;;35.35;;
32186;SDS011;18686;53.084;8.872;2023-12-07T11:09:25;100.40;;;31.88;;
32186;SDS011;18686;53.084;8.872;2023-12-07T11:11:59;87.15;;;30.98;;
32186;SDS011;18686;53.084;8.872;2023-12-07T11:14:32;117.63;;;35.25;;
32186;SDS011;18686;53.084;8.872;2023-12-07T11:17:01;90.05;;;30.98;;
32186;SDS011;18686;53.084;8.872;2023-12-07T11:19:43;152.05;;;35.33;;
32186;SDS011;18686;53.084;8.872;2023-12-07T11:22:12;132.55;;;34.58;;
32186;SDS011;18686;53.084;8.872;2023-12-07T11:24:53;128.25;;;34.08;;
32186;SDS011;18686;53.084;8.872;2023-12-07T11:27:26;111.05;;;32.92;;
32186;SDS011;18686;53.084;8.872;2023-12-07T11:29:58;92.27;;;29.97;;
32186;SDS011;18686;53.084;8.872;2023-12-07T11:32:28;93.78;;;31.80;;
32186;SDS011;18686;53.084;8.872;2023-12-07T11:34:59;86.25;;;30.45;;
32186;SDS011;18686;53.084;8.872;2023-12-07T11:40:36;113.45;;;32.25;;
32186;SDS011;18686;53.084;8.872;2023-12-07T11:43:17;81.65;;;28.83;;
32186;SDS011;18686;53.084;8.872;2023-12-07T11:45:58;107.55;;;32.88;;
32186;SDS011;18686;53.084;8.872;2023-12-07T11:48:27;116.90;;;33.80;;
32186;SDS011;18686;53.084;8.872;2023-12-07T11:50:59;78.20;;;27.95;;
32186;SDS011;18686;53.084;8.872;2023-12-07T11:53:28;84.50;;;29.85;;
32186;SDS011;18686;53.084;8.872;2023-12-07T11:55:57;79.85;;;29.55;;
32186;SDS011;18686;53.084;8.872;2023-12-07T11:58:28;80.18;;;28.77;;
32186;SDS011;18686;53.084;8.872;2023-12-07T12:01:00;70.72;;;27.75;;
32186;SDS011;18686;53.084;8.872;2023-12-07T12:03:29;95.47;;;31.08;;
32186;SDS011;18686;53.084;8.872;2023-12-07T12:05:58;65.65;;;27.48;;
32186;SDS011;18686;53.084;8.872;2023-12-07T12:08:27;136.93;;;36.55;;
32186;SDS011;18686;53.084;8.872;2023-12-07T12:10:55;93.88;;;29.70;;
32186;SDS011;18686;53.084;8.872;2023-12-07T12:13:29;121.68;;;33.67;;
32186;SDS011;18686;53.084;8.872;2023-12-07T12:15:58;89.55;;;29.55;;
32186;SDS011;18686;53.084;8.872;2023-12-07T12:18:32;67.32;;;27.08;;
32186;SDS011;18686;53.084;8.872;2023-12-07T12:21:02;70.63;;;28.70;;
32186;SDS011;18686;53.084;8.872;2023-12-07T12:23:30;78.13;;;27.92;;
32186;SDS011;18686;53.084;8.872;2023-12-07T12:25:59;104.28;;;30.33;;
32186;SDS011;18686;53.084;8.872;2023-12-07T12:28:30;73.97;;;28.25;;
32186;SDS011;18686;53.084;8.872;2023-12-07T12:30:59;75.80;;;29.02;;
32186;SDS011;18686;53.084;8.872;2023-12-07T12:33:28;105.00;;;30.65;;
32186;SDS011;18686;53.084;8.872;2023-12-07T12:36:02;81.00;;;30.50;;
32186;SDS011;18686;53.084;8.872;2023-12-07T12:38:33;92.90;;;32.08;;
32186;SDS011;18686;53.084;8.872;2023-12-07T12:41:09;95.80;;;32.45;;
32186;SDS011;18686;53.084;8.872;2023-12-07T12:43:40;73.32;;;29.40;;
32186;SDS011;18686;53.084;8.872;2023-12-07T12:46:11;87.85;;;30.00;;
32186;SDS011;18686;53.084;8.872;2023-12-07T12:48:53;90.80;;;29.30;;
32186;SDS011;18686;53.084;8.872;2023-12-07T12:51:23;113.43;;;33.85;;
32186;SDS011;18686;53.084;8.872;2023-12-07T12:53:53;79.93;;;30.10;;
32186;SDS011;18686;53.084;8.872;2023-12-07T12:56:23;104.60;;;31.67;;
32186;SDS011;18686;53.084;8.872;2023-12-07T12:58:54;93.38;;;30.23;;
32186;SDS011;18686;53.084;8.872;2023-12-07T13:01:30;86.25;;;33.63;;
32186;SDS011;18686;53.084;8.872;2023-12-07T13:04:01;91.15;;;31.67;;
32186;SDS011;18686;53.084;8.872;2023-12-07T13:06:30;105.78;;;33.17;;
32186;SDS011;18686;53.084;8.872;2023-12-07T13:08:58;106.75;;;33.38;;
32186;SDS011;18686;53.084;8.872;2023-12-07T13:11:27;109.68;;;34.25;;
32186;SDS011;18686;53.084;8.872;2023-12-07T13:13:56;135.90;;;35.22;;
32186;SDS011;18686;53.084;8.872;2023-12-07T13:16:25;111.30;;;35.05;;
32186;SDS011;18686;53.084;8.872;2023-12-07T13:18:54;131.20;;;35.08;;
32186;SDS011;18686;53.084;8.872;2023-12-07T13:21:23;100.63;;;32.05;;
32186;SDS011;18686;53.084;8.872;2023-12-07T13:23:52;82.70;;;29.67;;
32186;SDS011;18686;53.084;8.872;2023-12-07T13:26:20;107.07;;;33.95;;
32186;SDS011;18686;53.084;8.872;2023-12-07T13:28:50;86.30;;;30.50;;
32186;SDS011;18686;53.084;8.872;2023-12-07T13:31:21;99.47;;;31.92;;
32186;SDS011;18686;53.084;8.872;2023-12-07T13:33:50;104.05;;;34.13;;
32186;SDS011;18686;53.084;8.872;2023-12-07T13:36:23;64.22;;;30.08;;
32186;SDS011;18686;53.084;8.872;2023-12-07T13:38:53;104.03;;;33.72;;
32186;SDS011;18686;53.084;8.872;2023-12-07T13:41:22;87.35;;;31.70;;
32186;SDS011;18686;53.084;8.872;2023-12-07T13:43:51;93.53;;;33.97;;
32186;SDS011;18686;53.084;8.872;2023-12-07T13:46:20;88.65;;;30.48;;
32186;SDS011;18686;53.084;8.872;2023-12-07T13:48:50;135.50;;;36.00;;
32186;SDS011;18686;53.084;8.872;2023-12-07T13:51:18;72.85;;;29.95;;
32186;SDS011;18686;53.084;8.872;2023-12-07T13:53:47;84.50;;;31.98;;
32186;SDS011;18686;53.084;8.872;2023-12-07T13:56:26;90.45;;;29.48;;
32186;SDS011;18686;53.084;8.872;2023-12-07T13:58:54;124.57;;;35.38;;
32186;SDS011;18686;53.084;8.872;2023-12-07T14:01:24;93.57;;;32.63;;
32186;SDS011;18686;53.084;8.872;2023-12-07T14:03:52;112.95;;;34.78;;
32186;SDS011;18686;53.084;8.872;2023-12-07T14:06:22;83.78;;;30.83;;
32186;SDS011;18686;53.084;8.872;2023-12-07T14:08:55;76.13;;;29.40;;
32186;SDS011;18686;53.084;8.872;2023-12-07T14:11:23;88.38;;;31.23;;
32186;SDS011;18686;53.084;8.872;2023-12-07T14:13:51;106.80;;;33.47;;
32186;SDS011;18686;53.084;8.872;2023-12-07T14:16:21;58.53;;;28.25;;
32186;SDS011;18686;53.084;8.872;2023-12-07T14:19:11;86.70;;;31.80;;
32186;SDS011;18686;53.084;8.872;2023-12-07T14:21:46;70.82;;;29.20;;
32186;SDS011;18686;53.084;8.872;2023-12-07T14:24:22;73.40;;;29.13;;
32186;SDS011;18686;53.084;8.872;2023-12-07T14:26:51;79.85;;;30.50;;
32186;SDS011;18686;53.084;8.872;2023-12-07T14:29:20;63.97;;;27.90;;